createdAt,value
2018-09-17T00:00:05.838Z,96176.00
2018-09-17T00:05:35.249Z,96170.00
2018-09-17T00:11:04.724Z,96170.00
2018-09-17T00:16:34.019Z,96168.00
2018-09-17T00:22:04.399Z,96166.00
2018-09-17T00:27:33.672Z,96164.00
2018-09-17T00:33:02.927Z,96160.00
2018-09-17T00:38:32.244Z,96162.00
2018-09-17T00:44:01.523Z,96163.00
2018-09-17T00:49:30.787Z,96161.00
2018-09-17T00:55:00.094Z,96165.00
2018-09-17T01:00:29.378Z,96157.00
2018-09-17T01:05:58.703Z,96160.00
2018-09-17T01:11:27.988Z,96164.00
2018-09-17T01:16:57.235Z,96155.00
2018-09-17T01:22:26.490Z,96157.00
2018-09-17T01:27:55.752Z,96164.00
2018-09-17T01:33:25.035Z,96162.00
2018-09-17T01:38:57.194Z,96163.00
2018-09-17T01:44:26.497Z,96163.00
2018-09-17T01:49:55.805Z,96148.00
2018-09-17T01:55:25.021Z,96141.00
2018-09-17T02:00:54.360Z,96139.00
2018-09-17T02:06:23.715Z,96151.00
2018-09-17T02:11:52.924Z,96147.00
2018-09-17T02:17:22.156Z,96148.00
2018-09-17T02:22:51.427Z,96149.00
2018-09-17T02:28:20.620Z,96145.00
2018-09-17T02:33:49.879Z,96146.00
2018-09-17T02:39:20.772Z,96155.00
2018-09-17T02:44:50.109Z,96152.00
2018-09-17T02:50:19.335Z,96140.00
2018-09-17T02:55:48.782Z,96148.00
2018-09-17T03:01:18.151Z,96153.00
2018-09-17T03:06:47.371Z,96150.00
2018-09-17T03:12:16.656Z,96164.00
2018-09-17T03:17:46.519Z,96161.00
2018-09-17T03:23:15.907Z,96161.00
2018-09-17T03:28:45.316Z,96166.00
2018-09-17T03:34:14.642Z,96168.00
2018-09-17T03:39:45.822Z,96177.00
2018-09-17T03:45:15.156Z,96182.00
2018-09-17T03:50:44.395Z,96190.00
2018-09-17T03:56:13.689Z,96187.00
2018-09-17T04:01:46.452Z,96187.00
2018-09-17T04:07:15.734Z,96191.00
2018-09-17T04:12:45.053Z,96183.00
2018-09-17T04:18:14.472Z,96185.00
2018-09-17T04:23:45.347Z,96188.00
2018-09-17T04:29:15.929Z,96186.00
2018-09-17T04:34:45.299Z,96189.00
2018-09-17T04:40:14.717Z,96195.00
2018-09-17T04:45:46.365Z,96204.00
2018-09-17T04:51:32.659Z,96200.00
2018-09-17T04:57:02.941Z,96209.00
2018-09-17T05:02:33.351Z,96206.00
2018-09-17T05:08:03.857Z,96204.00
2018-09-17T05:13:33.205Z,96205.00
2018-09-17T05:19:02.411Z,96205.00
2018-09-17T05:24:31.667Z,96223.00
2018-09-17T05:30:01.112Z,96235.00
2018-09-17T05:35:30.469Z,96242.00
2018-09-17T05:40:59.769Z,96238.00
2018-09-17T05:46:29.030Z,96238.00
2018-09-17T05:51:58.360Z,96245.00
2018-09-17T05:57:28.672Z,96248.00
2018-09-17T06:02:59.067Z,96259.00
2018-09-17T06:08:28.391Z,96260.00
2018-09-17T06:13:57.684Z,96263.00
2018-09-17T06:19:27.023Z,96259.00
2018-09-17T06:24:56.297Z,96248.00
2018-09-17T06:30:25.508Z,96256.00
2018-09-17T06:35:54.695Z,96266.00
2018-09-17T06:41:24.076Z,96271.00
2018-09-17T06:46:56.980Z,96264.00
2018-09-17T06:52:26.204Z,96268.00
2018-09-17T06:57:55.454Z,96263.00
2018-09-17T07:03:24.781Z,96272.00
2018-09-17T07:08:53.961Z,96270.00
2018-09-17T07:14:23.160Z,96263.00
2018-09-17T07:19:52.761Z,96265.00
2018-09-17T07:25:22.025Z,96262.00
2018-09-17T07:30:51.262Z,96259.00
2018-09-17T07:36:20.547Z,96254.00
2018-09-17T07:41:49.802Z,96255.00
2018-09-17T07:47:19.096Z,96254.00
2018-09-17T07:52:48.387Z,96242.00
2018-09-17T07:58:17.601Z,96238.00
2018-09-17T08:03:46.849Z,96232.00
2018-09-17T08:09:16.241Z,96227.00
2018-09-17T08:14:45.566Z,96221.00
2018-09-17T08:20:14.931Z,96227.00
2018-09-17T08:25:44.279Z,96231.00
2018-09-17T08:31:13.838Z,96240.00
2018-09-17T08:36:43.147Z,96238.00
2018-09-17T08:42:12.766Z,96235.00
2018-09-17T08:47:42.035Z,96234.00
2018-09-17T08:53:11.466Z,96233.00
2018-09-17T08:58:45.963Z,96219.00
2018-09-17T09:04:20.580Z,96229.00
2018-09-17T09:09:50.016Z,96227.00
2018-09-17T09:15:23.044Z,96215.00
2018-09-17T09:20:52.316Z,96207.00
2018-09-17T09:26:21.576Z,96210.00
2018-09-17T09:31:50.758Z,96211.00
2018-09-17T09:37:20.290Z,96210.00
2018-09-17T09:42:49.524Z,96203.00
2018-09-17T09:48:18.732Z,96198.00
2018-09-17T09:53:48.045Z,96200.00
2018-09-17T09:59:17.291Z,96191.00
2018-09-17T10:04:46.615Z,96184.00
2018-09-17T10:10:21.180Z,96180.00
2018-09-17T10:15:54.385Z,96186.00
2018-09-17T10:21:24.194Z,96170.00
2018-09-17T10:26:53.556Z,96163.00
2018-09-17T10:32:22.780Z,96157.00
2018-09-17T10:37:52.068Z,96152.00
2018-09-17T10:43:21.263Z,96145.00
2018-09-17T10:48:50.495Z,96142.00
2018-09-17T10:54:19.736Z,96140.00
2018-09-17T10:59:49.099Z,96141.00
2018-09-17T11:05:18.394Z,96130.00
2018-09-17T11:10:47.644Z,96121.00
2018-09-17T11:16:16.855Z,96121.00
2018-09-17T11:21:46.154Z,96116.00
2018-09-17T11:27:15.607Z,96108.00
2018-09-17T11:32:44.929Z,96101.00
2018-09-17T11:38:14.294Z,96100.00
2018-09-17T11:43:43.616Z,96096.00
2018-09-17T11:49:12.981Z,96097.00
2018-09-17T11:54:43.417Z,96090.00
2018-09-17T12:00:16.284Z,96096.00
2018-09-17T12:05:50.803Z,96085.00
2018-09-17T12:11:20.072Z,96083.00
2018-09-17T12:16:49.337Z,96073.00
2018-09-17T12:22:18.509Z,96066.00
2018-09-17T12:27:47.731Z,96071.00
2018-09-17T12:33:17.040Z,96074.00
2018-09-17T12:38:46.451Z,96074.00
2018-09-17T12:44:16.689Z,96078.00
2018-09-17T12:49:45.970Z,96068.00
2018-09-17T12:55:15.231Z,96056.00
2018-09-17T13:00:44.723Z,96055.00
2018-09-17T13:06:14.044Z,96058.00
2018-09-17T13:11:43.592Z,96049.00
2018-09-17T13:17:12.989Z,96051.00
2018-09-17T13:22:42.347Z,96043.00
2018-09-17T13:28:15.950Z,96035.00
2018-09-17T13:33:45.600Z,96037.00
2018-09-17T13:39:15.055Z,96039.00
2018-09-17T13:44:44.827Z,96039.00
2018-09-17T13:50:14.309Z,96010.00
2018-09-17T13:55:43.692Z,95999.00
2018-09-17T14:01:12.970Z,95991.00
2018-09-17T14:06:42.356Z,95991.00
2018-09-17T14:12:11.744Z,95983.00
2018-09-17T14:17:41.198Z,95955.00
2018-09-17T14:23:10.534Z,95952.00
2018-09-17T14:28:40.062Z,95953.00
2018-09-17T14:34:09.385Z,95954.00
2018-09-17T14:39:38.731Z,95948.00
2018-09-17T14:45:08.229Z,95947.00
2018-09-17T14:50:38.846Z,95942.00
2018-09-17T14:56:08.560Z,95935.00
2018-09-17T15:01:38.194Z,95929.00
2018-09-17T15:07:08.774Z,95959.00
2018-09-17T15:12:38.277Z,95967.00
2018-09-17T15:18:07.729Z,95976.00
2018-09-17T15:23:37.158Z,95977.00
2018-09-17T15:29:06.462Z,95971.00
2018-09-17T15:34:36.580Z,95963.00
2018-09-17T15:40:07.370Z,95958.00
2018-09-17T15:45:37.818Z,95954.00
2018-09-17T15:51:07.346Z,95955.00
2018-09-17T15:56:41.351Z,95946.00
2018-09-17T16:02:10.844Z,95920.00
2018-09-17T16:07:40.523Z,95941.00
2018-09-17T16:13:10.158Z,95944.00
2018-09-17T16:18:39.804Z,95942.00
2018-09-17T16:24:09.244Z,95952.00
2018-09-17T16:29:38.589Z,95946.00
2018-09-17T16:35:09.015Z,95944.00
2018-09-17T16:40:38.412Z,95941.00
2018-09-17T16:46:08.040Z,95949.00
2018-09-17T16:51:37.393Z,95949.00
2018-09-17T16:57:06.710Z,95953.00
2018-09-17T17:02:37.163Z,95946.00
2018-09-17T17:08:06.487Z,95944.00
2018-09-17T17:13:35.786Z,95939.00
2018-09-17T17:19:05.216Z,95944.00
2018-09-17T17:24:34.809Z,95946.00
2018-09-17T17:30:04.095Z,95943.00
2018-09-17T17:35:35.727Z,95942.00
2018-09-17T17:41:05.067Z,95950.00
2018-09-17T17:46:34.369Z,95952.00
2018-09-17T17:52:03.809Z,95943.00
2018-09-17T17:58:37.935Z,95954.00
2018-09-17T18:04:08.619Z,95958.00
2018-09-17T18:09:38.540Z,95952.00
2018-09-17T18:15:09.296Z,95964.00
2018-09-17T18:20:39.164Z,95959.00
2018-09-17T18:26:08.749Z,95961.00
2018-09-17T18:31:40.640Z,95963.00
2018-09-17T18:37:10.400Z,95962.00
2018-09-17T18:42:39.915Z,95965.00
2018-09-17T18:48:09.607Z,95965.00
2018-09-17T18:53:39.471Z,95967.00
2018-09-17T18:59:09.674Z,95973.00
2018-09-17T19:04:39.670Z,95974.00
2018-09-17T19:10:10.132Z,95967.00
2018-09-17T19:15:44.834Z,95959.00
2018-09-17T19:21:14.571Z,95960.00
2018-09-17T19:26:45.109Z,95958.00
2018-09-17T19:32:14.556Z,95947.00
2018-09-17T19:37:49.405Z,95951.00
2018-09-17T19:43:18.848Z,95949.00
2018-09-17T19:48:48.656Z,95954.00
2018-09-17T19:54:18.060Z,95956.00
2018-09-17T19:59:51.892Z,95957.00
2018-09-17T20:05:26.220Z,95964.00
2018-09-17T20:11:01.562Z,95963.00
2018-09-17T20:16:33.096Z,95955.00
2018-09-17T20:22:02.869Z,95956.00
2018-09-17T20:27:32.160Z,95946.00
2018-09-17T20:33:01.515Z,95950.00
2018-09-17T20:38:38.003Z,95941.00
2018-09-17T21:06:52.285Z,95925.00
2018-09-17T21:12:21.890Z,95921.00
2018-09-17T21:17:51.598Z,95921.00
2018-09-17T21:23:34.347Z,95919.00
2018-09-17T21:29:24.046Z,95913.00
2018-09-17T21:34:53.555Z,95920.00
2018-09-17T21:40:22.712Z,95910.00
2018-09-17T21:45:52.010Z,95906.00
2018-09-17T21:51:22.788Z,95910.00
2018-09-17T21:56:52.023Z,95908.00
2018-09-17T22:02:22.021Z,95895.00
2018-09-17T22:07:51.666Z,95898.00
2018-09-17T22:13:21.229Z,95893.00
2018-09-17T22:18:50.509Z,95880.00
2018-09-17T22:24:19.707Z,95880.00
2018-09-17T22:29:49.270Z,95875.00
2018-09-17T22:35:18.674Z,95881.00
2018-09-17T22:40:47.882Z,95879.00
2018-09-17T22:46:17.082Z,95873.00
2018-09-17T22:51:46.403Z,95862.00
2018-09-17T22:57:15.672Z,95863.00
2018-09-17T23:02:44.935Z,95871.00
2018-09-17T23:08:14.362Z,95865.00
2018-09-17T23:13:43.668Z,95861.00
2018-09-17T23:19:13.097Z,95858.00
2018-09-17T23:24:42.413Z,95860.00
2018-09-17T23:30:12.035Z,95853.00
2018-09-17T23:35:41.427Z,95850.00
2018-09-17T23:41:11.235Z,95862.00
2018-09-17T23:46:40.608Z,95861.00
2018-09-17T23:52:10.033Z,95855.00
2018-09-17T23:57:39.350Z,95855.00
